createdAt,value
2023-04-05T00:00:42.927Z,102590.13
2023-04-05T00:05:45.904Z,102581.94
2023-04-05T00:10:47.373Z,102570.41
2023-04-05T00:15:49.913Z,102581.56
2023-04-05T00:20:51.851Z,102567.34
2023-04-05T00:25:53.393Z,102571.22
2023-04-05T00:30:54.976Z,102561.53
2023-04-05T00:35:56.478Z,102558.13
2023-04-05T00:40:57.982Z,102559.16
2023-04-05T00:46:00.265Z,102549.41
2023-04-05T00:51:02.639Z,102554.97
2023-04-05T00:56:04.451Z,102549.56
2023-04-05T01:01:20.537Z,102536.56
2023-04-05T01:06:27.947Z,102542.50
2023-04-05T01:11:32.377Z,102541.91
2023-04-05T01:16:33.896Z,102533.69
2023-04-05T01:21:38.027Z,102522.97
2023-04-05T01:27:06.958Z,102519.47
2023-04-05T01:32:17.616Z,102514.41
2023-04-05T01:37:22.772Z,102512.78
2023-04-05T01:42:25.943Z,102513.91
2023-04-05T01:47:27.503Z,102510.50
2023-04-05T01:52:29.036Z,102501.44
2023-04-05T01:57:30.608Z,102506.66
2023-04-05T02:02:32.136Z,102497.94
2023-04-05T02:07:33.641Z,102490.88
2023-04-05T02:12:35.287Z,102478.50
2023-04-05T02:17:39.979Z,102469.72
2023-04-05T02:22:45.439Z,102465.44
2023-04-05T02:27:47.796Z,102469.97
2023-04-05T02:32:49.389Z,102472.13
2023-04-05T02:37:50.974Z,102466.66
2023-04-05T02:42:52.470Z,102460.78
2023-04-05T02:47:55.231Z,102459.66
2023-04-05T02:52:56.897Z,102451.59
2023-04-05T02:58:00.843Z,102444.72
2023-04-05T03:03:02.394Z,102436.00
2023-04-05T03:08:04.119Z,102430.50
2023-04-05T03:13:05.679Z,102431.38
2023-04-05T03:18:07.235Z,102428.78
2023-04-05T03:23:09.449Z,102431.31
2023-04-05T03:28:10.932Z,102423.84
2023-04-05T03:33:12.533Z,102419.84
2023-04-05T03:38:14.571Z,102422.47
2023-04-05T03:43:16.807Z,102425.16
2023-04-05T03:48:20.312Z,102416.63
2023-04-05T03:53:21.869Z,102416.28
2023-04-05T03:58:23.410Z,102421.59
2023-04-05T04:03:26.094Z,102412.28
2023-04-05T04:08:27.616Z,102412.53
2023-04-05T04:13:29.227Z,102414.19
2023-04-05T04:18:30.778Z,102422.13
2023-04-05T04:23:34.421Z,102423.00
2023-04-05T04:28:38.747Z,102411.31
2023-04-05T04:33:40.321Z,102409.13
2023-04-05T04:38:42.934Z,102410.59
2023-04-05T04:43:44.678Z,102414.00
2023-04-05T04:48:47.263Z,102407.44
2023-04-05T04:53:48.804Z,102413.47
2023-04-05T04:58:50.404Z,102400.06
2023-04-05T05:03:52.257Z,102406.06
2023-04-05T05:08:54.442Z,102404.34
2023-04-05T05:13:55.974Z,102405.91
2023-04-05T05:18:57.518Z,102386.91
2023-04-05T05:23:58.985Z,102388.75
2023-04-05T05:29:02.157Z,102398.78
2023-04-05T05:34:03.679Z,102394.59
2023-04-05T05:39:05.939Z,102394.66
2023-04-05T05:44:07.408Z,102410.63
2023-04-05T05:49:09.079Z,102401.47
2023-04-05T05:54:10.638Z,102402.59
2023-04-05T05:59:13.418Z,102406.25
2023-04-05T06:04:15.148Z,102404.75
2023-04-05T06:09:16.929Z,102405.88
2023-04-05T06:14:18.753Z,102394.63
2023-04-05T06:19:20.495Z,102404.22
2023-04-05T06:24:21.999Z,102398.22
2023-04-05T06:29:23.592Z,102401.41
2023-04-05T06:34:25.101Z,102391.03
2023-04-05T06:39:26.589Z,102400.97
2023-04-05T06:44:28.084Z,102399.03
2023-04-05T06:49:29.544Z,102405.25
2023-04-05T06:54:31.226Z,102400.00
2023-04-05T06:59:33.121Z,102401.75
2023-04-05T07:04:36.931Z,102401.75
2023-04-05T07:09:39.915Z,102405.75
2023-04-05T07:14:41.477Z,102398.72
2023-04-05T07:19:43.309Z,102394.69
2023-04-05T07:24:46.139Z,102393.56
2023-04-05T07:29:48.365Z,102395.41
2023-04-05T07:34:49.876Z,102391.63
2023-04-05T07:39:51.564Z,102390.91
2023-04-05T07:44:53.141Z,102393.19
2023-04-05T07:49:54.892Z,102392.41
2023-04-05T07:54:56.788Z,102391.34
2023-04-05T07:59:58.343Z,102388.22
2023-04-05T08:05:00.003Z,102385.09
2023-04-05T08:10:01.682Z,102388.78
2023-04-05T08:15:03.836Z,102389.94
2023-04-05T08:20:06.038Z,102391.69
2023-04-05T08:25:08.353Z,102389.66
2023-04-05T08:30:10.626Z,102393.13
2023-04-05T08:35:14.807Z,102386.59
2023-04-05T08:40:16.427Z,102382.25
2023-04-05T08:45:19.412Z,102382.56
2023-04-05T08:50:21.937Z,102377.66
2023-04-05T08:55:24.821Z,102378.25
2023-04-05T09:00:27.794Z,102379.69
2023-04-05T09:05:30.836Z,102370.97
2023-04-05T09:10:32.673Z,102368.00
2023-04-05T09:15:36.292Z,102368.34
2023-04-05T09:20:38.222Z,102372.63
2023-04-05T09:25:42.486Z,102367.22
2023-04-05T09:30:47.753Z,102360.97
2023-04-05T09:35:51.255Z,102360.06
2023-04-05T09:40:52.796Z,102344.59
2023-04-05T09:45:54.363Z,102355.63
2023-04-05T09:51:12.546Z,102352.44
2023-04-05T09:56:14.979Z,102359.41
2023-04-05T10:01:17.469Z,102348.59
2023-04-05T10:06:19.403Z,102352.06
2023-04-05T10:11:21.807Z,102343.88
2023-04-05T10:16:28.486Z,102346.88
2023-04-05T10:21:33.646Z,102337.84
2023-04-05T10:26:49.364Z,102346.41
2023-04-05T10:31:59.340Z,102334.75
2023-04-05T10:37:02.096Z,102328.19
2023-04-05T10:42:27.517Z,102322.75
2023-04-05T10:47:32.204Z,102322.09
2023-04-05T10:52:34.378Z,102315.19
2023-04-05T10:57:37.505Z,102322.25
2023-04-05T11:02:39.628Z,102312.47
2023-04-05T11:07:45.900Z,102301.22
2023-04-05T11:12:47.367Z,102303.81
2023-04-05T11:18:05.551Z,102293.16
2023-04-05T11:23:07.351Z,102288.31
2023-04-05T11:28:09.220Z,102294.63
2023-04-05T11:33:10.807Z,102289.94
2023-04-05T11:38:22.132Z,102283.75
2023-04-05T11:43:30.104Z,102289.69
2023-04-05T11:48:31.592Z,102293.03
2023-04-05T11:53:33.067Z,102272.13
2023-04-05T11:58:34.529Z,102260.94
2023-04-05T12:03:37.442Z,102260.59
2023-04-05T12:08:49.951Z,102253.03
2023-04-05T12:13:59.059Z,102251.31
2023-04-05T12:19:00.941Z,102234.59
2023-04-05T12:24:02.593Z,102246.97
2023-04-05T12:29:04.494Z,102243.88
2023-04-05T12:34:06.346Z,102237.81
2023-04-05T12:39:09.968Z,102237.31
2023-04-05T12:44:15.194Z,102228.84
2023-04-05T12:49:17.929Z,102219.84
2023-04-05T12:54:23.660Z,102219.13
2023-04-05T12:59:25.347Z,102206.75
2023-04-05T13:04:26.886Z,102210.72
2023-04-05T13:09:28.411Z,102200.94
2023-04-05T13:14:30.006Z,102199.19
2023-04-05T13:19:31.556Z,102185.19
2023-04-05T13:24:33.066Z,102185.59
2023-04-05T13:29:34.598Z,102177.81
2023-04-05T13:34:36.130Z,102172.97
2023-04-05T13:39:37.636Z,102170.38
2023-04-05T13:44:39.280Z,102155.78
2023-04-05T13:49:41.078Z,102153.41
2023-04-05T13:54:42.938Z,102152.03
2023-04-05T13:59:44.582Z,102152.31
2023-04-05T14:04:46.436Z,102148.59
2023-04-05T14:09:48.009Z,102142.41
2023-04-05T14:14:49.551Z,102132.63
2023-04-05T14:19:51.029Z,102132.03
2023-04-05T14:24:52.646Z,102116.28
2023-04-05T14:29:57.098Z,102103.28
2023-04-05T14:34:58.825Z,102096.66
2023-04-05T14:40:00.310Z,102099.38
2023-04-05T14:45:01.991Z,102085.13
2023-04-05T14:56:19.027Z,102076.59
2023-04-05T15:01:20.703Z,102067.19
2023-04-05T15:06:22.303Z,102060.16
2023-04-05T15:11:23.822Z,102068.06
2023-04-05T15:16:25.428Z,102055.19
2023-04-05T15:21:27.278Z,102053.72
2023-04-05T15:26:28.880Z,102054.09
2023-04-05T15:31:33.703Z,102048.50
2023-04-05T15:36:36.057Z,102039.88
2023-04-05T15:41:37.752Z,102045.03
2023-04-05T15:46:39.313Z,102040.94
2023-04-05T15:51:40.880Z,102033.16
2023-04-05T15:56:42.973Z,102038.69
2023-04-05T16:01:44.706Z,102027.81
2023-04-05T16:06:46.676Z,102027.81
2023-04-05T16:11:48.262Z,102022.88
2023-04-05T16:16:53.703Z,102018.28
2023-04-05T16:21:55.966Z,102022.84
2023-04-05T16:26:58.097Z,102020.25
2023-04-05T16:31:59.781Z,102000.84
2023-04-05T16:37:01.309Z,101998.38
2023-04-05T16:42:02.810Z,101987.72
2023-04-05T16:47:04.298Z,101995.66
2023-04-05T16:52:06.006Z,101987.47
2023-04-05T16:57:07.562Z,101996.16
2023-04-05T17:02:09.258Z,101983.50
2023-04-05T17:07:10.876Z,101990.81
2023-04-05T17:12:12.548Z,101989.44
2023-04-05T17:17:14.026Z,101992.94
2023-04-05T17:22:15.664Z,101989.50
2023-04-05T17:27:17.138Z,101986.16
2023-04-05T17:32:18.695Z,101979.47
2023-04-05T17:37:20.404Z,101981.56
2023-04-05T17:42:21.885Z,101979.75
2023-04-05T17:47:23.468Z,101986.44
2023-04-05T17:52:24.995Z,101985.81
2023-04-05T17:57:26.563Z,101986.19
2023-04-05T18:02:28.429Z,101986.47
2023-04-05T18:07:30.484Z,101979.41
2023-04-05T18:12:33.080Z,101992.28
2023-04-05T18:17:34.655Z,101975.09
2023-04-05T18:22:36.332Z,101981.91
2023-04-05T18:27:39.006Z,101980.81
2023-04-05T18:32:43.336Z,101975.50
2023-04-05T18:37:44.831Z,101970.31
2023-04-05T18:42:46.495Z,101969.34
2023-04-05T18:47:48.091Z,101977.09
2023-04-05T18:52:49.600Z,101982.25
2023-04-05T18:57:51.312Z,101980.84
2023-04-05T19:02:52.957Z,101981.41
2023-04-05T19:07:54.496Z,101987.03
2023-04-05T19:12:56.075Z,101987.53
2023-04-05T19:17:58.231Z,101985.72
2023-04-05T19:22:59.840Z,101985.69
2023-04-05T19:28:01.525Z,101997.91
2023-04-05T19:33:03.064Z,101993.19
2023-04-05T19:38:04.956Z,101977.34
2023-04-05T19:43:06.533Z,101978.66
2023-04-05T19:48:41.186Z,101976.75
2023-04-05T19:53:50.261Z,101987.06
2023-04-05T19:59:03.625Z,101971.53
2023-04-05T20:04:17.023Z,101970.13
2023-04-05T20:09:20.193Z,101958.88
2023-04-05T20:14:28.167Z,101971.09
2023-04-05T20:19:31.501Z,101965.72
2023-04-05T20:24:33.607Z,101959.88
2023-04-05T20:29:36.185Z,101949.88
2023-04-05T20:34:43.722Z,101933.22
2023-04-05T20:39:45.365Z,101938.53
2023-04-05T20:44:47.907Z,101934.94
2023-04-05T20:49:50.306Z,101935.19
2023-04-05T20:54:52.237Z,101926.06
2023-04-05T20:59:53.898Z,101923.72
2023-04-05T21:04:55.601Z,101912.09
2023-04-05T21:09:57.135Z,101910.50
2023-04-05T21:15:00.313Z,101899.91
2023-04-05T21:20:02.063Z,101906.19
2023-04-05T21:25:05.894Z,101901.00
2023-04-05T21:30:07.975Z,101898.91
2023-04-05T21:35:10.000Z,101904.84
2023-04-05T21:40:11.970Z,101900.75
2023-04-05T21:45:13.625Z,101902.56
2023-04-05T21:50:15.339Z,101896.91
2023-04-05T21:55:17.192Z,101890.97
2023-04-05T22:00:19.022Z,101882.69
2023-04-05T22:05:33.954Z,101888.25
2023-04-05T22:10:39.305Z,101880.47
2023-04-05T22:15:40.935Z,101870.06
2023-04-05T22:20:42.440Z,101874.13
2023-04-05T22:25:43.940Z,101872.06
2023-04-05T22:30:45.478Z,101867.84
2023-04-05T22:35:47.111Z,101863.28
2023-04-05T22:40:48.836Z,101858.22
2023-04-05T22:45:52.025Z,101854.75
2023-04-05T22:50:53.667Z,101847.84
2023-04-05T22:55:55.380Z,101842.91
2023-04-05T23:00:56.901Z,101852.34
2023-04-05T23:05:58.426Z,101835.34
2023-04-05T23:10:59.890Z,101834.34
2023-04-05T23:16:01.680Z,101835.53
2023-04-05T23:21:03.351Z,101835.22
2023-04-05T23:26:04.883Z,101832.63
2023-04-05T23:31:06.417Z,101827.44
2023-04-05T23:36:08.618Z,101819.25
2023-04-05T23:41:10.189Z,101816.56
2023-04-05T23:46:11.717Z,101811.13
2023-04-05T23:51:13.221Z,101817.53
2023-04-05T23:56:14.980Z,101796.94
